RJTT/HND METAR and TAF weather

Enter ICAO airport designator
Station Type Date Time Source
RJTT METAR 2019/12/05 23:00 UTC NOAA

RJTT 052300Z 02010KT 9999 FEW030 BKN050 09/02 Q1024 NOSIG


Station Type Date Time Source
RJTT Decoded METAR 2019/12/05 23:00 UTC NOAA

Tokyo International Airport, Japan (RJTT) 35-33N 139-47E 8M
Dec 05, 2019 - 06:00 PM EST / 2019.12.05 2300 UTC
Wind: from the NNE (020 degrees) at 12 MPH (10 KT):0
Visibility: greater than 7 mile(s):0
Sky conditions: mostly cloudy
Temperature: 48 F (9 C)
Dew Point: 35 F (2 C)
Relative Humidity: 61%
Pressure (altimeter): 30.24 in. Hg (1024 hPa)
ob: RJTT 052300Z 02010KT 9999 FEW030 BKN050 09/02 Q1024 NOSIG
cycle: 23

Station Type Date Time Source
RJTT TAF 2019/12/05 18:28 UTC NOAA

TAF RJTT 051706Z 0518/0700 01012KT 9999 FEW030

Example: see airport list